sensor_id;sensor_type;location;lat;lon;timestamp;P1;durP1;ratioP1;P2;durP2;ratioP2
23470;SDS011;11908;50.806;4.424;2023-04-07T00:02:18;21.33;;;8.23;;
23470;SDS011;11908;50.806;4.424;2023-04-07T00:04:43;18.08;;;8.68;;
23470;SDS011;11908;50.806;4.424;2023-04-07T00:07:09;19.63;;;8.80;;
23470;SDS011;11908;50.806;4.424;2023-04-07T00:09:35;19.13;;;8.27;;
23470;SDS011;11908;50.806;4.424;2023-04-07T00:12:01;17.00;;;8.63;;
23470;SDS011;11908;50.806;4.424;2023-04-07T00:14:27;21.98;;;9.25;;
23470;SDS011;11908;50.806;4.424;2023-04-07T00:16:53;22.83;;;9.27;;
23470;SDS011;11908;50.806;4.424;2023-04-07T00:19:18;19.08;;;8.68;;
23470;SDS011;11908;50.806;4.424;2023-04-07T00:21:44;21.30;;;8.57;;
23470;SDS011;11908;50.806;4.424;2023-04-07T00:24:10;17.73;;;9.18;;
23470;SDS011;11908;50.806;4.424;2023-04-07T00:26:36;21.55;;;9.32;;
23470;SDS011;11908;50.806;4.424;2023-04-07T00:29:02;21.00;;;9.10;;
23470;SDS011;11908;50.806;4.424;2023-04-07T00:31:28;21.30;;;8.85;;
23470;SDS011;11908;50.806;4.424;2023-04-07T00:33:53;23.40;;;9.38;;
23470;SDS011;11908;50.806;4.424;2023-04-07T00:36:21;19.23;;;9.38;;
23470;SDS011;11908;50.806;4.424;2023-04-07T00:38:47;24.30;;;9.80;;
23470;SDS011;11908;50.806;4.424;2023-04-07T00:41:13;17.27;;;9.35;;
23470;SDS011;11908;50.806;4.424;2023-04-07T00:43:38;17.70;;;8.88;;
23470;SDS011;11908;50.806;4.424;2023-04-07T00:46:04;22.30;;;8.80;;
23470;SDS011;11908;50.806;4.424;2023-04-07T00:48:30;18.85;;;9.55;;
23470;SDS011;11908;50.806;4.424;2023-04-07T00:50:56;27.23;;;11.88;;
23470;SDS011;11908;50.806;4.424;2023-04-07T00:53:21;24.60;;;10.82;;
23470;SDS011;11908;50.806;4.424;2023-04-07T00:55:47;23.02;;;10.23;;
23470;SDS011;11908;50.806;4.424;2023-04-07T00:58:13;21.08;;;9.13;;
23470;SDS011;11908;50.806;4.424;2023-04-07T01:00:50;16.52;;;9.55;;
23470;SDS011;11908;50.806;4.424;2023-04-07T01:03:24;16.80;;;8.68;;
23470;SDS011;11908;50.806;4.424;2023-04-07T01:06:02;20.50;;;9.40;;
23470;SDS011;11908;50.806;4.424;2023-04-07T01:11:02;16.77;;;9.55;;
23470;SDS011;11908;50.806;4.424;2023-04-07T01:13:45;20.55;;;10.30;;
23470;SDS011;11908;50.806;4.424;2023-04-07T01:16:18;18.73;;;10.48;;
23470;SDS011;11908;50.806;4.424;2023-04-07T01:18:52;19.20;;;8.90;;
23470;SDS011;11908;50.806;4.424;2023-04-07T01:21:19;21.30;;;10.35;;
23470;SDS011;11908;50.806;4.424;2023-04-07T01:24:18;18.08;;;9.88;;
23470;SDS011;11908;50.806;4.424;2023-04-07T01:26:42;21.10;;;10.52;;
23470;SDS011;11908;50.806;4.424;2023-04-07T01:29:30;17.50;;;9.73;;
23470;SDS011;11908;50.806;4.424;2023-04-07T01:31:58;22.92;;;10.55;;
23470;SDS011;11908;50.806;4.424;2023-04-07T01:34:25;21.25;;;10.98;;
23470;SDS011;11908;50.806;4.424;2023-04-07T01:36:54;20.95;;;11.57;;
23470;SDS011;11908;50.806;4.424;2023-04-07T01:39:22;22.55;;;11.43;;
23470;SDS011;11908;50.806;4.424;2023-04-07T01:41:49;17.50;;;11.18;;
23470;SDS011;11908;50.806;4.424;2023-04-07T01:44:17;24.88;;;11.77;;
23470;SDS011;11908;50.806;4.424;2023-04-07T01:46:44;18.75;;;11.45;;
23470;SDS011;11908;50.806;4.424;2023-04-07T01:49:10;20.98;;;11.80;;
23470;SDS011;11908;50.806;4.424;2023-04-07T01:51:36;20.98;;;11.75;;
23470;SDS011;11908;50.806;4.424;2023-04-07T01:54:03;27.40;;;13.90;;
23470;SDS011;11908;50.806;4.424;2023-04-07T01:56:29;22.33;;;12.63;;
23470;SDS011;11908;50.806;4.424;2023-04-07T01:58:55;24.25;;;12.65;;
23470;SDS011;11908;50.806;4.424;2023-04-07T02:01:21;23.92;;;12.73;;
23470;SDS011;11908;50.806;4.424;2023-04-07T02:03:48;19.92;;;13.10;;
23470;SDS011;11908;50.806;4.424;2023-04-07T02:06:27;24.60;;;13.30;;
23470;SDS011;11908;50.806;4.424;2023-04-07T02:08:59;27.80;;;13.68;;
23470;SDS011;11908;50.806;4.424;2023-04-07T02:11:31;22.70;;;12.88;;
23470;SDS011;11908;50.806;4.424;2023-04-07T02:13:58;31.25;;;13.98;;
23470;SDS011;11908;50.806;4.424;2023-04-07T02:16:27;25.85;;;14.63;;
23470;SDS011;11908;50.806;4.424;2023-04-07T02:18:55;23.63;;;14.23;;
23470;SDS011;11908;50.806;4.424;2023-04-07T02:21:22;24.77;;;13.85;;
23470;SDS011;11908;50.806;4.424;2023-04-07T02:23:50;31.48;;;15.32;;
23470;SDS011;11908;50.806;4.424;2023-04-07T02:26:15;24.67;;;14.40;;
23470;SDS011;11908;50.806;4.424;2023-04-07T02:28:41;27.88;;;14.43;;
23470;SDS011;11908;50.806;4.424;2023-04-07T02:31:07;22.23;;;13.23;;
23470;SDS011;11908;50.806;4.424;2023-04-07T02:33:32;23.63;;;13.70;;
23470;SDS011;11908;50.806;4.424;2023-04-07T02:35:58;24.60;;;13.32;;
23470;SDS011;11908;50.806;4.424;2023-04-07T02:38:24;26.55;;;13.82;;
23470;SDS011;11908;50.806;4.424;2023-04-07T02:40:50;26.88;;;12.93;;
23470;SDS011;11908;50.806;4.424;2023-04-07T02:43:15;24.23;;;12.75;;
23470;SDS011;11908;50.806;4.424;2023-04-07T02:45:43;23.17;;;13.77;;
23470;SDS011;11908;50.806;4.424;2023-04-07T02:48:08;22.88;;;13.00;;
23470;SDS011;11908;50.806;4.424;2023-04-07T02:50:34;24.83;;;12.73;;
23470;SDS011;11908;50.806;4.424;2023-04-07T02:53:00;18.35;;;12.13;;
23470;SDS011;11908;50.806;4.424;2023-04-07T02:55:25;19.65;;;12.70;;
23470;SDS011;11908;50.806;4.424;2023-04-07T02:57:51;25.08;;;12.70;;
23470;SDS011;11908;50.806;4.424;2023-04-07T03:00:17;21.95;;;12.45;;
23470;SDS011;11908;50.806;4.424;2023-04-07T03:02:42;21.05;;;13.00;;
23470;SDS011;11908;50.806;4.424;2023-04-07T03:05:08;23.15;;;13.30;;
23470;SDS011;11908;50.806;4.424;2023-04-07T03:07:34;17.70;;;12.10;;
23470;SDS011;11908;50.806;4.424;2023-04-07T03:10:00;25.50;;;13.23;;
23470;SDS011;11908;50.806;4.424;2023-04-07T03:12:25;20.08;;;12.00;;
23470;SDS011;11908;50.806;4.424;2023-04-07T03:14:51;20.17;;;12.30;;
23470;SDS011;11908;50.806;4.424;2023-04-07T03:17:17;22.52;;;12.57;;
23470;SDS011;11908;50.806;4.424;2023-04-07T03:19:42;22.13;;;12.02;;
23470;SDS011;11908;50.806;4.424;2023-04-07T03:22:08;19.00;;;12.25;;
23470;SDS011;11908;50.806;4.424;2023-04-07T03:24:34;22.65;;;12.00;;
23470;SDS011;11908;50.806;4.424;2023-04-07T03:26:59;22.10;;;13.07;;
23470;SDS011;11908;50.806;4.424;2023-04-07T03:29:26;20.25;;;11.52;;
23470;SDS011;11908;50.806;4.424;2023-04-07T03:31:51;18.85;;;11.80;;
23470;SDS011;11908;50.806;4.424;2023-04-07T03:34:17;22.38;;;13.07;;
23470;SDS011;11908;50.806;4.424;2023-04-07T03:36:43;21.50;;;12.52;;
23470;SDS011;11908;50.806;4.424;2023-04-07T03:39:08;18.95;;;11.68;;
23470;SDS011;11908;50.806;4.424;2023-04-07T03:41:34;25.35;;;12.50;;
23470;SDS011;11908;50.806;4.424;2023-04-07T03:44:00;27.17;;;12.88;;
23470;SDS011;11908;50.806;4.424;2023-04-07T03:46:26;29.10;;;13.43;;
23470;SDS011;11908;50.806;4.424;2023-04-07T03:48:51;35.45;;;13.77;;
23470;SDS011;11908;50.806;4.424;2023-04-07T03:51:17;27.15;;;14.65;;
23470;SDS011;11908;50.806;4.424;2023-04-07T03:53:43;33.00;;;14.65;;
23470;SDS011;11908;50.806;4.424;2023-04-07T03:56:08;33.78;;;16.00;;
23470;SDS011;11908;50.806;4.424;2023-04-07T03:58:35;39.55;;;16.35;;
23470;SDS011;11908;50.806;4.424;2023-04-07T04:01:01;38.13;;;16.27;;
23470;SDS011;11908;50.806;4.424;2023-04-07T04:03:27;43.05;;;18.38;;
23470;SDS011;11908;50.806;4.424;2023-04-07T04:05:52;40.95;;;15.55;;
23470;SDS011;11908;50.806;4.424;2023-04-07T04:08:18;40.95;;;16.63;;
23470;SDS011;11908;50.806;4.424;2023-04-07T04:10:44;40.28;;;15.88;;
23470;SDS011;11908;50.806;4.424;2023-04-07T04:13:10;38.13;;;16.88;;
23470;SDS011;11908;50.806;4.424;2023-04-07T04:15:36;38.83;;;16.38;;
23470;SDS011;11908;50.806;4.424;2023-04-07T04:18:01;38.47;;;15.63;;
23470;SDS011;11908;50.806;4.424;2023-04-07T04:20:27;41.38;;;16.30;;
23470;SDS011;11908;50.806;4.424;2023-04-07T04:22:53;42.83;;;17.55;;
23470;SDS011;11908;50.806;4.424;2023-04-07T04:25:18;46.92;;;18.92;;
23470;SDS011;11908;50.806;4.424;2023-04-07T04:27:44;51.20;;;18.42;;
23470;SDS011;11908;50.806;4.424;2023-04-07T04:30:10;48.35;;;17.67;;
23470;SDS011;11908;50.806;4.424;2023-04-07T04:32:36;39.28;;;17.95;;
23470;SDS011;11908;50.806;4.424;2023-04-07T04:35:02;42.80;;;16.17;;
23470;SDS011;11908;50.806;4.424;2023-04-07T04:37:28;44.75;;;17.17;;
23470;SDS011;11908;50.806;4.424;2023-04-07T04:39:53;45.47;;;17.45;;
23470;SDS011;11908;50.806;4.424;2023-04-07T04:42:19;44.42;;;17.75;;
23470;SDS011;11908;50.806;4.424;2023-04-07T04:44:45;41.95;;;15.05;;
23470;SDS011;11908;50.806;4.424;2023-04-07T04:47:11;48.92;;;16.45;;
23470;SDS011;11908;50.806;4.424;2023-04-07T04:49:36;45.88;;;17.33;;
23470;SDS011;11908;50.806;4.424;2023-04-07T04:52:02;39.80;;;16.88;;
23470;SDS011;11908;50.806;4.424;2023-04-07T04:54:28;41.17;;;17.42;;
23470;SDS011;11908;50.806;4.424;2023-04-07T04:56:54;43.38;;;17.77;;
23470;SDS011;11908;50.806;4.424;2023-04-07T04:59:21;42.75;;;17.92;;
23470;SDS011;11908;50.806;4.424;2023-04-07T05:01:47;39.03;;;17.45;;
23470;SDS011;11908;50.806;4.424;2023-04-07T05:04:13;41.22;;;18.63;;
23470;SDS011;11908;50.806;4.424;2023-04-07T05:06:38;45.22;;;18.73;;
23470;SDS011;11908;50.806;4.424;2023-04-07T05:09:04;41.38;;;18.35;;
23470;SDS011;11908;50.806;4.424;2023-04-07T05:11:30;42.40;;;17.92;;
23470;SDS011;11908;50.806;4.424;2023-04-07T05:13:55;41.05;;;18.35;;
23470;SDS011;11908;50.806;4.424;2023-04-07T05:16:21;43.63;;;19.23;;
23470;SDS011;11908;50.806;4.424;2023-04-07T05:18:46;38.72;;;18.50;;
23470;SDS011;11908;50.806;4.424;2023-04-07T05:21:12;46.63;;;20.02;;
23470;SDS011;11908;50.806;4.424;2023-04-07T05:23:38;36.83;;;18.17;;
23470;SDS011;11908;50.806;4.424;2023-04-07T05:26:03;41.45;;;18.63;;
23470;SDS011;11908;50.806;4.424;2023-04-07T05:28:29;35.05;;;17.65;;
23470;SDS011;11908;50.806;4.424;2023-04-07T05:30:55;43.78;;;17.42;;
23470;SDS011;11908;50.806;4.424;2023-04-07T05:33:20;47.70;;;18.83;;
23470;SDS011;11908;50.806;4.424;2023-04-07T05:35:46;42.03;;;19.08;;
23470;SDS011;11908;50.806;4.424;2023-04-07T05:38:12;44.17;;;19.17;;
23470;SDS011;11908;50.806;4.424;2023-04-07T05:40:38;41.30;;;17.98;;
23470;SDS011;11908;50.806;4.424;2023-04-07T05:43:04;41.47;;;18.45;;
23470;SDS011;11908;50.806;4.424;2023-04-07T05:45:30;39.30;;;18.25;;
23470;SDS011;11908;50.806;4.424;2023-04-07T05:47:56;40.05;;;18.73;;
23470;SDS011;11908;50.806;4.424;2023-04-07T05:50:21;38.83;;;18.67;;
23470;SDS011;11908;50.806;4.424;2023-04-07T05:52:47;43.88;;;19.17;;
23470;SDS011;11908;50.806;4.424;2023-04-07T05:55:13;36.42;;;18.95;;
23470;SDS011;11908;50.806;4.424;2023-04-07T05:57:38;41.22;;;18.88;;
23470;SDS011;11908;50.806;4.424;2023-04-07T06:00:04;41.05;;;19.38;;
23470;SDS011;11908;50.806;4.424;2023-04-07T06:02:30;37.38;;;18.88;;
23470;SDS011;11908;50.806;4.424;2023-04-07T06:04:56;45.90;;;19.25;;
23470;SDS011;11908;50.806;4.424;2023-04-07T06:07:22;39.95;;;18.75;;
23470;SDS011;11908;50.806;4.424;2023-04-07T06:09:47;40.55;;;18.95;;
23470;SDS011;11908;50.806;4.424;2023-04-07T06:12:13;36.65;;;19.38;;
23470;SDS011;11908;50.806;4.424;2023-04-07T06:14:40;40.20;;;18.83;;
23470;SDS011;11908;50.806;4.424;2023-04-07T06:17:06;33.78;;;16.63;;
23470;SDS011;11908;50.806;4.424;2023-04-07T06:19:32;33.40;;;16.77;;
23470;SDS011;11908;50.806;4.424;2023-04-07T06:21:57;43.15;;;18.67;;
23470;SDS011;11908;50.806;4.424;2023-04-07T06:24:23;37.88;;;17.20;;
23470;SDS011;11908;50.806;4.424;2023-04-07T06:26:49;35.60;;;18.05;;
23470;SDS011;11908;50.806;4.424;2023-04-07T06:29:18;34.33;;;16.77;;
23470;SDS011;11908;50.806;4.424;2023-04-07T06:31:44;32.17;;;17.10;;
23470;SDS011;11908;50.806;4.424;2023-04-07T06:34:10;33.83;;;16.90;;
23470;SDS011;11908;50.806;4.424;2023-04-07T06:36:36;33.35;;;16.88;;
23470;SDS011;11908;50.806;4.424;2023-04-07T06:39:02;28.63;;;15.60;;
23470;SDS011;11908;50.806;4.424;2023-04-07T06:41:28;35.10;;;15.75;;
23470;SDS011;11908;50.806;4.424;2023-04-07T06:43:53;23.98;;;12.90;;
23470;SDS011;11908;50.806;4.424;2023-04-07T06:46:19;26.00;;;12.63;;
23470;SDS011;11908;50.806;4.424;2023-04-07T06:48:45;23.15;;;11.48;;
23470;SDS011;11908;50.806;4.424;2023-04-07T06:51:11;21.52;;;11.48;;
23470;SDS011;11908;50.806;4.424;2023-04-07T06:53:37;24.65;;;12.10;;
23470;SDS011;11908;50.806;4.424;2023-04-07T06:56:03;28.50;;;12.25;;
23470;SDS011;11908;50.806;4.424;2023-04-07T06:58:29;28.08;;;13.63;;
23470;SDS011;11908;50.806;4.424;2023-04-07T07:00:55;25.45;;;13.32;;
23470;SDS011;11908;50.806;4.424;2023-04-07T07:03:20;28.33;;;13.98;;
23470;SDS011;11908;50.806;4.424;2023-04-07T07:05:46;27.17;;;13.80;;
23470;SDS011;11908;50.806;4.424;2023-04-07T07:08:12;30.77;;;13.52;;
23470;SDS011;11908;50.806;4.424;2023-04-07T07:10:37;25.33;;;12.45;;
23470;SDS011;11908;50.806;4.424;2023-04-07T07:13:03;20.48;;;12.48;;
23470;SDS011;11908;50.806;4.424;2023-04-07T07:15:29;21.60;;;12.68;;
23470;SDS011;11908;50.806;4.424;2023-04-07T07:17:54;21.65;;;12.75;;
23470;SDS011;11908;50.806;4.424;2023-04-07T07:20:20;21.58;;;11.73;;
23470;SDS011;11908;50.806;4.424;2023-04-07T07:22:47;25.45;;;12.63;;
23470;SDS011;11908;50.806;4.424;2023-04-07T07:25:13;21.95;;;12.73;;
23470;SDS011;11908;50.806;4.424;2023-04-07T07:27:39;22.35;;;11.82;;
23470;SDS011;11908;50.806;4.424;2023-04-07T07:30:05;18.90;;;11.85;;
23470;SDS011;11908;50.806;4.424;2023-04-07T07:32:31;20.83;;;11.52;;
23470;SDS011;11908;50.806;4.424;2023-04-07T07:34:57;18.75;;;10.93;;
23470;SDS011;11908;50.806;4.424;2023-04-07T07:37:23;19.85;;;11.10;;
23470;SDS011;11908;50.806;4.424;2023-04-07T07:39:48;22.42;;;12.02;;
23470;SDS011;11908;50.806;4.424;2023-04-07T07:42:14;22.00;;;11.48;;
23470;SDS011;11908;50.806;4.424;2023-04-07T07:44:40;18.20;;;11.10;;
23470;SDS011;11908;50.806;4.424;2023-04-07T07:47:05;23.45;;;11.85;;
23470;SDS011;11908;50.806;4.424;2023-04-07T07:49:31;21.73;;;11.85;;
23470;SDS011;11908;50.806;4.424;2023-04-07T07:51:57;18.92;;;10.35;;
23470;SDS011;11908;50.806;4.424;2023-04-07T07:54:23;16.63;;;9.48;;
23470;SDS011;11908;50.806;4.424;2023-04-07T07:56:49;23.50;;;9.43;;
23470;SDS011;11908;50.806;4.424;2023-04-07T07:59:15;16.38;;;8.93;;
23470;SDS011;11908;50.806;4.424;2023-04-07T08:01:41;13.65;;;8.13;;
23470;SDS011;11908;50.806;4.424;2023-04-07T08:04:07;16.05;;;7.88;;
23470;SDS011;11908;50.806;4.424;2023-04-07T08:06:33;15.57;;;8.55;;
23470;SDS011;11908;50.806;4.424;2023-04-07T08:08:58;17.80;;;7.75;;
23470;SDS011;11908;50.806;4.424;2023-04-07T08:11:24;15.25;;;7.15;;
23470;SDS011;11908;50.806;4.424;2023-04-07T08:13:50;13.23;;;8.05;;
23470;SDS011;11908;50.806;4.424;2023-04-07T08:16:17;13.57;;;7.70;;
23470;SDS011;11908;50.806;4.424;2023-04-07T08:18:43;16.58;;;8.07;;
23470;SDS011;11908;50.806;4.424;2023-04-07T08:21:09;19.27;;;7.57;;
23470;SDS011;11908;50.806;4.424;2023-04-07T08:23:35;13.30;;;6.88;;
23470;SDS011;11908;50.806;4.424;2023-04-07T08:26:01;11.32;;;6.03;;
23470;SDS011;11908;50.806;4.424;2023-04-07T08:28:26;12.68;;;6.00;;
23470;SDS011;11908;50.806;4.424;2023-04-07T08:30:52;6.90;;;5.18;;
23470;SDS011;11908;50.806;4.424;2023-04-07T08:33:18;13.65;;;5.13;;
23470;SDS011;11908;50.806;4.424;2023-04-07T08:35:43;14.10;;;5.68;;
23470;SDS011;11908;50.806;4.424;2023-04-07T08:38:09;9.15;;;6.22;;
23470;SDS011;11908;50.806;4.424;2023-04-07T08:40:35;12.07;;;5.68;;
23470;SDS011;11908;50.806;4.424;2023-04-07T08:43:02;17.85;;;7.50;;
23470;SDS011;11908;50.806;4.424;2023-04-07T08:45:33;13.10;;;5.80;;
23470;SDS011;11908;50.806;4.424;2023-04-07T08:48:04;7.57;;;4.78;;
23470;SDS011;11908;50.806;4.424;2023-04-07T08:50:45;11.75;;;5.50;;
23470;SDS011;11908;50.806;4.424;2023-04-07T08:53:17;7.50;;;3.72;;
23470;SDS011;11908;50.806;4.424;2023-04-07T08:55:47;9.57;;;5.18;;
23470;SDS011;11908;50.806;4.424;2023-04-07T08:58:13;8.88;;;4.82;;
23470;SDS011;11908;50.806;4.424;2023-04-07T09:00:40;8.98;;;4.68;;
23470;SDS011;11908;50.806;4.424;2023-04-07T09:03:09;10.90;;;5.88;;
23470;SDS011;11908;50.806;4.424;2023-04-07T09:05:35;11.27;;;6.05;;
23470;SDS011;11908;50.806;4.424;2023-04-07T09:08:02;9.18;;;4.93;;
23470;SDS011;11908;50.806;4.424;2023-04-07T09:10:28;7.68;;;4.72;;
23470;SDS011;11908;50.806;4.424;2023-04-07T09:12:54;8.98;;;4.82;;
23470;SDS011;11908;50.806;4.424;2023-04-07T09:15:21;17.00;;;4.00;;
23470;SDS011;11908;50.806;4.424;2023-04-07T09:17:47;9.10;;;3.88;;
23470;SDS011;11908;50.806;4.424;2023-04-07T09:20:13;11.60;;;3.63;;
23470;SDS011;11908;50.806;4.424;2023-04-07T09:22:41;6.93;;;3.08;;
23470;SDS011;11908;50.806;4.424;2023-04-07T09:27:52;7.85;;;2.30;;
23470;SDS011;11908;50.806;4.424;2023-04-07T09:30:28;3.67;;;2.20;;
23470;SDS011;11908;50.806;4.424;2023-04-07T09:32:56;4.32;;;2.25;;
23470;SDS011;11908;50.806;4.424;2023-04-07T09:35:22;4.88;;;2.00;;
23470;SDS011;11908;50.806;4.424;2023-04-07T09:38:01;6.10;;;1.80;;
23470;SDS011;11908;50.806;4.424;2023-04-07T09:40:28;6.47;;;2.13;;
23470;SDS011;11908;50.806;4.424;2023-04-07T09:42:53;6.32;;;1.98;;
23470;SDS011;11908;50.806;4.424;2023-04-07T09:45:23;3.88;;;2.00;;
23470;SDS011;11908;50.806;4.424;2023-04-07T09:47:52;5.43;;;2.00;;
23470;SDS011;11908;50.806;4.424;2023-04-07T09:50:31;6.80;;;2.00;;
23470;SDS011;11908;50.806;4.424;2023-04-07T09:53:03;4.95;;;2.08;;
23470;SDS011;11908;50.806;4.424;2023-04-07T09:55:29;5.25;;;1.50;;
23470;SDS011;11908;50.806;4.424;2023-04-07T09:57:55;4.75;;;2.05;;
23470;SDS011;11908;50.806;4.424;2023-04-07T10:00:21;4.70;;;1.70;;
23470;SDS011;11908;50.806;4.424;2023-04-07T10:02:47;4.00;;;1.38;;
23470;SDS011;11908;50.806;4.424;2023-04-07T10:05:15;3.70;;;1.50;;
23470;SDS011;11908;50.806;4.424;2023-04-07T10:07:41;2.42;;;1.35;;
23470;SDS011;11908;50.806;4.424;2023-04-07T10:10:07;7.43;;;1.20;;
23470;SDS011;11908;50.806;4.424;2023-04-07T10:12:34;5.13;;;1.20;;
23470;SDS011;11908;50.806;4.424;2023-04-07T10:15:02;7.55;;;1.23;;
23470;SDS011;11908;50.806;4.424;2023-04-07T10:17:28;2.17;;;1.00;;
23470;SDS011;11908;50.806;4.424;2023-04-07T10:19:56;3.75;;;1.10;;
23470;SDS011;11908;50.806;4.424;2023-04-07T10:22:23;3.78;;;1.70;;
23470;SDS011;11908;50.806;4.424;2023-04-07T10:27:29;4.60;;;1.27;;
23470;SDS011;11908;50.806;4.424;2023-04-07T10:29:57;4.45;;;1.15;;
23470;SDS011;11908;50.806;4.424;2023-04-07T10:32:25;2.58;;;0.95;;
23470;SDS011;11908;50.806;4.424;2023-04-07T10:37:22;3.05;;;1.30;;
23470;SDS011;11908;50.806;4.424;2023-04-07T10:39:49;2.22;;;0.80;;
23470;SDS011;11908;50.806;4.424;2023-04-07T10:45:04;4.57;;;1.17;;
23470;SDS011;11908;50.806;4.424;2023-04-07T10:47:30;3.05;;;1.45;;
23470;SDS011;11908;50.806;4.424;2023-04-07T10:50:18;7.70;;;2.00;;
23470;SDS011;11908;50.806;4.424;2023-04-07T10:52:45;4.55;;;1.98;;
23470;SDS011;11908;50.806;4.424;2023-04-07T10:55:28;8.23;;;1.75;;
23470;SDS011;11908;50.806;4.424;2023-04-07T11:03:39;6.13;;;1.50;;
23470;SDS011;11908;50.806;4.424;2023-04-07T11:06:12;4.90;;;1.50;;
23470;SDS011;11908;50.806;4.424;2023-04-07T11:08:39;5.30;;;1.83;;
23470;SDS011;11908;50.806;4.424;2023-04-07T11:11:06;5.32;;;2.28;;
23470;SDS011;11908;50.806;4.424;2023-04-07T11:13:39;5.22;;;2.08;;
23470;SDS011;11908;50.806;4.424;2023-04-07T11:16:10;6.03;;;1.80;;
23470;SDS011;11908;50.806;4.424;2023-04-07T11:18:37;4.65;;;1.85;;
23470;SDS011;11908;50.806;4.424;2023-04-07T11:21:04;6.57;;;2.28;;
23470;SDS011;11908;50.806;4.424;2023-04-07T11:23:37;6.00;;;2.40;;
23470;SDS011;11908;50.806;4.424;2023-04-07T11:26:04;5.43;;;2.10;;
23470;SDS011;11908;50.806;4.424;2023-04-07T11:28:31;7.53;;;1.95;;
23470;SDS011;11908;50.806;4.424;2023-04-07T11:30:57;6.38;;;1.83;;
23470;SDS011;11908;50.806;4.424;2023-04-07T11:33:28;7.80;;;2.47;;
23470;SDS011;11908;50.806;4.424;2023-04-07T11:35:58;4.10;;;1.80;;
23470;SDS011;11908;50.806;4.424;2023-04-07T11:38:29;9.57;;;1.95;;
23470;SDS011;11908;50.806;4.424;2023-04-07T11:41:10;6.45;;;2.00;;
23470;SDS011;11908;50.806;4.424;2023-04-07T11:43:37;6.75;;;2.60;;
23470;SDS011;11908;50.806;4.424;2023-04-07T11:46:16;4.90;;;2.20;;
23470;SDS011;11908;50.806;4.424;2023-04-07T11:48:43;8.07;;;2.50;;
23470;SDS011;11908;50.806;4.424;2023-04-07T11:51:17;6.90;;;2.47;;
23470;SDS011;11908;50.806;4.424;2023-04-07T11:53:53;6.07;;;2.58;;
23470;SDS011;11908;50.806;4.424;2023-04-07T11:56:19;4.63;;;2.08;;
23470;SDS011;11908;50.806;4.424;2023-04-07T11:58:53;9.02;;;2.50;;
23470;SDS011;11908;50.806;4.424;2023-04-07T12:01:19;4.65;;;2.83;;
23470;SDS011;11908;50.806;4.424;2023-04-07T12:04:01;6.95;;;2.90;;
23470;SDS011;11908;50.806;4.424;2023-04-07T12:06:29;6.07;;;2.63;;
23470;SDS011;11908;50.806;4.424;2023-04-07T12:08:58;9.38;;;2.80;;
23470;SDS011;11908;50.806;4.424;2023-04-07T12:11:25;5.30;;;2.95;;
23470;SDS011;11908;50.806;4.424;2023-04-07T12:13:51;5.97;;;2.72;;
23470;SDS011;11908;50.806;4.424;2023-04-07T12:16:17;9.48;;;3.42;;
23470;SDS011;11908;50.806;4.424;2023-04-07T12:18:44;10.32;;;3.42;;
23470;SDS011;11908;50.806;4.424;2023-04-07T12:21:10;10.38;;;3.15;;
23470;SDS011;11908;50.806;4.424;2023-04-07T12:23:35;8.20;;;2.97;;
23470;SDS011;11908;50.806;4.424;2023-04-07T12:26:01;6.20;;;2.70;;
23470;SDS011;11908;50.806;4.424;2023-04-07T12:28:27;6.15;;;2.90;;
23470;SDS011;11908;50.806;4.424;2023-04-07T12:30:53;6.65;;;2.15;;
23470;SDS011;11908;50.806;4.424;2023-04-07T12:33:19;9.13;;;2.90;;
23470;SDS011;11908;50.806;4.424;2023-04-07T12:35:45;8.80;;;2.30;;
23470;SDS011;11908;50.806;4.424;2023-04-07T12:38:10;7.43;;;2.28;;
23470;SDS011;11908;50.806;4.424;2023-04-07T12:40:36;6.93;;;2.40;;
23470;SDS011;11908;50.806;4.424;2023-04-07T12:43:03;8.00;;;2.20;;
23470;SDS011;11908;50.806;4.424;2023-04-07T12:45:29;5.25;;;2.42;;
23470;SDS011;11908;50.806;4.424;2023-04-07T12:47:56;7.85;;;2.60;;
23470;SDS011;11908;50.806;4.424;2023-04-07T12:50:22;9.20;;;3.00;;
23470;SDS011;11908;50.806;4.424;2023-04-07T12:52:49;7.85;;;3.13;;
23470;SDS011;11908;50.806;4.424;2023-04-07T12:55:16;5.85;;;2.35;;
23470;SDS011;11908;50.806;4.424;2023-04-07T12:57:42;13.68;;;3.10;;
23470;SDS011;11908;50.806;4.424;2023-04-07T13:00:08;12.00;;;3.83;;
23470;SDS011;11908;50.806;4.424;2023-04-07T13:02:34;8.25;;;3.03;;
23470;SDS011;11908;50.806;4.424;2023-04-07T13:05:02;6.25;;;2.72;;
23470;SDS011;11908;50.806;4.424;2023-04-07T13:07:28;5.45;;;2.58;;
23470;SDS011;11908;50.806;4.424;2023-04-07T13:09:54;5.60;;;3.08;;
23470;SDS011;11908;50.806;4.424;2023-04-07T13:12:21;7.22;;;2.90;;
23470;SDS011;11908;50.806;4.424;2023-04-07T13:14:47;7.25;;;2.90;;
23470;SDS011;11908;50.806;4.424;2023-04-07T13:17:13;8.20;;;2.90;;
23470;SDS011;11908;50.806;4.424;2023-04-07T13:19:39;9.65;;;2.90;;
23470;SDS011;11908;50.806;4.424;2023-04-07T13:22:05;6.53;;;3.70;;
23470;SDS011;11908;50.806;4.424;2023-04-07T13:24:30;5.28;;;2.22;;
23470;SDS011;11908;50.806;4.424;2023-04-07T13:26:56;8.40;;;2.83;;
23470;SDS011;11908;50.806;4.424;2023-04-07T13:29:22;10.23;;;2.88;;
23470;SDS011;11908;50.806;4.424;2023-04-07T13:31:48;29.50;;;4.28;;
23470;SDS011;11908;50.806;4.424;2023-04-07T13:34:14;13.63;;;3.28;;
23470;SDS011;11908;50.806;4.424;2023-04-07T13:36:41;20.90;;;3.90;;
23470;SDS011;11908;50.806;4.424;2023-04-07T13:39:06;9.70;;;3.08;;
23470;SDS011;11908;50.806;4.424;2023-04-07T13:41:33;11.85;;;3.15;;
23470;SDS011;11908;50.806;4.424;2023-04-07T13:43:59;9.15;;;3.00;;
23470;SDS011;11908;50.806;4.424;2023-04-07T13:46:25;11.13;;;3.28;;
23470;SDS011;11908;50.806;4.424;2023-04-07T13:48:51;30.67;;;6.18;;
23470;SDS011;11908;50.806;4.424;2023-04-07T13:51:17;8.38;;;2.83;;
23470;SDS011;11908;50.806;4.424;2023-04-07T13:53:43;14.95;;;2.53;;
23470;SDS011;11908;50.806;4.424;2023-04-07T13:56:09;10.73;;;3.17;;
23470;SDS011;11908;50.806;4.424;2023-04-07T13:58:35;8.05;;;2.40;;
23470;SDS011;11908;50.806;4.424;2023-04-07T14:01:01;7.10;;;2.35;;
23470;SDS011;11908;50.806;4.424;2023-04-07T14:03:28;7.03;;;2.40;;
23470;SDS011;11908;50.806;4.424;2023-04-07T14:05:54;7.43;;;2.22;;
23470;SDS011;11908;50.806;4.424;2023-04-07T14:08:24;6.85;;;2.92;;
23470;SDS011;11908;50.806;4.424;2023-04-07T14:10:50;6.82;;;1.90;;
23470;SDS011;11908;50.806;4.424;2023-04-07T14:13:16;5.00;;;2.05;;
23470;SDS011;11908;50.806;4.424;2023-04-07T14:15:42;6.95;;;2.40;;
23470;SDS011;11908;50.806;4.424;2023-04-07T14:18:07;9.15;;;2.70;;
23470;SDS011;11908;50.806;4.424;2023-04-07T14:20:33;6.13;;;2.35;;
23470;SDS011;11908;50.806;4.424;2023-04-07T14:22:59;10.63;;;2.58;;
23470;SDS011;11908;50.806;4.424;2023-04-07T14:25:25;11.13;;;2.92;;
23470;SDS011;11908;50.806;4.424;2023-04-07T14:27:51;14.82;;;2.78;;
23470;SDS011;11908;50.806;4.424;2023-04-07T14:30:17;4.93;;;2.45;;
23470;SDS011;11908;50.806;4.424;2023-04-07T14:32:43;8.85;;;2.47;;
23470;SDS011;11908;50.806;4.424;2023-04-07T14:35:08;5.55;;;2.13;;
23470;SDS011;11908;50.806;4.424;2023-04-07T14:37:34;8.43;;;2.20;;
23470;SDS011;11908;50.806;4.424;2023-04-07T14:40:01;6.93;;;2.40;;
23470;SDS011;11908;50.806;4.424;2023-04-07T14:42:27;7.93;;;2.45;;
23470;SDS011;11908;50.806;4.424;2023-04-07T14:44:53;3.95;;;2.08;;
23470;SDS011;11908;50.806;4.424;2023-04-07T14:47:19;8.50;;;2.08;;
23470;SDS011;11908;50.806;4.424;2023-04-07T14:49:45;4.70;;;2.30;;
23470;SDS011;11908;50.806;4.424;2023-04-07T14:52:11;6.35;;;2.80;;